logo
Search for airport 
image banner adimage banner adimage banner ad
image banner ad

LSPN - Triengen

Located in Aarau, Switzerland

ICAO - LSPN, IATA -

Data provided by Airmate  

General information

Coordinates: N47°13'36" E8°4'41"
Elevation is 1594 feet MSL.
Magnetic variation is 3.266° East
View others Airports in Lucerne

Operational data

Special qualification required
Current time UTC:
Current local time:
Weather at : LSME - Emmen ( 23 km )
METAR: LSME 140220Z AUTO 25003KT 210V300 9999NDV NCD 09/08 Q1025 RMK
View NOTAMs / SUP AIP / TFR affecting this airport [VIEW]
Communications frequencies: [VIEW]

Runways:

RWY identifierQFULength (ft)Width (ft)SurfaceLDA (ft)
15149°187049ASPH
33329°187049ASPH

Airport contact information

Address: Aarau Switzerland

Other aviation service providers

Aviation club (not for profit)

Flying Ranch Ag Motorflugschule

Flying Ranch Ag Motorflugschule

Satellite view of LSPN